Time;durP1;ratioP1;P1;durP2;ratioP2;P2;SDS_P1;SDS_P2;PMS_P1;PMS_P2;Temp;Humidity;BMP_temperature;BMP_pressure;BME280_temperature;BME280_humidity;BME280_pressure;Samples;Min_cycle;Max_cycle;Signal;HPM_P1;HPM_P2
2023/07/02 00:01:47;;;;;;;3.88;2.75;;;;;;;;;;4935433;29;20043;-60
2023/07/02 00:04:16;;;;;;;4.30;3.05;;;;;;;;;;4934602;29;20035;-60
2023/07/02 00:06:46;;;;;;;4.53;2.70;;;;;;;;;;4948734;28;20040;-60
2023/07/02 00:09:13;;;;;;;7.28;3.25;;;;;;;;;;4934216;29;20048;-60
2023/07/02 00:11:40;;;;;;;5.65;2.70;;;;;;;;;;4934553;29;20035;-60
2023/07/02 00:14:07;;;;;;;4.93;3.38;;;;;;;;;;4933223;28;20058;-60
2023/07/02 00:16:33;;;;;;;4.10;2.95;;;;;;;;;;4933458;29;20035;-61
2023/07/02 00:18:59;;;;;;;5.40;2.90;;;;;;;;;;4938810;28;20058;-60
2023/07/02 00:21:28;;;;;;;6.85;3.80;;;;;;;;;;4933037;28;20556;-60
2023/07/02 00:23:58;;;;;;;6.65;3.75;;;;;;;;;;4932161;29;20039;-60
2023/07/02 00:26:25;;;;;;;7.38;3.75;;;;;;;;;;4932798;29;20386;-60
2023/07/02 00:28:54;;;;;;;5.68;3.85;;;;;;;;;;4932206;29;20410;-60
2023/07/02 00:31:20;;;;;;;6.57;3.67;;;;;;;;;;4933228;28;20047;-60
2023/07/02 00:33:46;;;;;;;5.70;3.38;;;;;;;;;;4932228;29;20046;-60
2023/07/02 00:36:16;;;;;;;5.70;4.13;;;;;;;;;;4933471;29;20031;-60
2023/07/02 00:38:45;;;;;;;6.93;4.05;;;;;;;;;;4949491;28;20080;-60
2023/07/02 00:41:11;;;;;;;5.53;3.67;;;;;;;;;;4947766;28;20036;-61
2023/07/02 00:43:43;;;;;;;6.18;3.88;;;;;;;;;;4932675;29;20763;-61
2023/07/02 00:46:21;;;;;;;6.10;4.07;;;;;;;;;;4929270;29;20055;-61
2023/07/02 00:48:50;;;;;;;6.57;3.73;;;;;;;;;;4934022;28;20053;-61
2023/07/02 00:51:20;;;;;;;5.33;3.67;;;;;;;;;;4947374;28;20299;-61
2023/07/02 00:53:48;;;;;;;5.72;3.53;;;;;;;;;;4932127;29;20045;-61
2023/07/02 00:56:15;;;;;;;7.32;3.85;;;;;;;;;;4932752;29;20039;-59
2023/07/02 00:58:48;;;;;;;9.52;5.05;;;;;;;;;;4934742;28;20048;-61
2023/07/02 01:01:16;;;;;;;5.80;3.67;;;;;;;;;;4932602;29;20473;-61
2023/07/02 01:04:03;;;;;;;9.10;4.60;;;;;;;;;;4947826;28;20051;-61
2023/07/02 01:06:40;;;;;;;6.25;3.80;;;;;;;;;;4932498;29;20032;-61
2023/07/02 01:09:07;;;;;;;8.55;3.75;;;;;;;;;;4950973;28;20498;-61
2023/07/02 01:11:46;;;;;;;5.97;3.83;;;;;;;;;;4933076;29;20032;-61
2023/07/02 01:14:26;;;;;;;5.85;3.58;;;;;;;;;;4929503;29;20032;-61
2023/07/02 01:16:54;;;;;;;6.53;3.97;;;;;;;;;;4934155;29;20047;-60
2023/07/02 01:19:35;;;;;;;5.78;3.80;;;;;;;;;;4936280;29;20039;-60
2023/07/02 01:22:02;;;;;;;8.07;4.45;;;;;;;;;;4951739;28;20043;-60
2023/07/02 01:24:28;;;;;;;5.60;4.13;;;;;;;;;;4935072;29;20036;-60
2023/07/02 01:26:56;;;;;;;6.40;4.40;;;;;;;;;;4934723;29;20274;-60
2023/07/02 01:29:22;;;;;;;7.68;4.10;;;;;;;;;;4936046;29;20028;-60
2023/07/02 01:31:48;;;;;;;8.93;4.15;;;;;;;;;;4936649;29;20035;-62
2023/07/02 01:34:14;;;;;;;6.00;4.25;;;;;;;;;;4937254;29;20039;-60
2023/07/02 01:36:41;;;;;;;8.25;4.05;;;;;;;;;;4936558;28;20071;-60
2023/07/02 01:39:07;;;;;;;9.25;4.15;;;;;;;;;;4942808;29;20441;-59
2023/07/02 01:41:45;;;;;;;6.97;4.55;;;;;;;;;;4937570;29;20039;-61
2023/07/02 01:44:11;;;;;;;7.93;4.80;;;;;;;;;;4936439;29;20031;-61
2023/07/02 01:46:37;;;;;;;6.50;3.97;;;;;;;;;;4936345;29;20032;-61
2023/07/02 01:49:03;;;;;;;7.13;3.83;;;;;;;;;;4951278;28;20486;-61
2023/07/02 01:51:29;;;;;;;7.53;4.30;;;;;;;;;;4949573;28;20058;-61
2023/07/02 01:53:55;;;;;;;8.23;4.20;;;;;;;;;;4935342;29;20050;-61
2023/07/02 01:56:22;;;;;;;8.75;4.30;;;;;;;;;;4951137;28;20040;-61
2023/07/02 01:58:48;;;;;;;5.95;4.20;;;;;;;;;;4936418;28;20514;-61
2023/07/02 02:01:14;;;;;;;7.80;4.38;;;;;;;;;;4950317;28;20031;-61
2023/07/02 02:03:40;;;;;;;7.25;4.45;;;;;;;;;;4952549;28;20047;-61
2023/07/02 02:06:06;;;;;;;8.07;4.50;;;;;;;;;;4936766;29;20031;-61
2023/07/02 02:08:32;;;;;;;7.10;4.38;;;;;;;;;;4934183;29;20042;-61
2023/07/02 02:11:00;;;;;;;7.72;4.43;;;;;;;;;;4939057;28;20040;-61
2023/07/02 02:13:26;;;;;;;6.78;4.40;;;;;;;;;;4950713;28;20047;-61
2023/07/02 02:15:54;;;;;;;8.13;4.80;;;;;;;;;;4935971;28;20055;-61
2023/07/02 02:18:20;;;;;;;6.10;4.45;;;;;;;;;;4935140;29;20051;-61
2023/07/02 02:20:46;;;;;;;7.35;4.45;;;;;;;;;;4936452;28;20044;-61
2023/07/02 02:23:12;;;;;;;7.93;4.35;;;;;;;;;;4935752;28;20520;-61
2023/07/02 02:25:38;;;;;;;7.15;4.38;;;;;;;;;;4952507;28;20062;-61
2023/07/02 02:28:04;;;;;;;7.35;4.50;;;;;;;;;;4949238;28;20044;-61
2023/07/02 02:30:30;;;;;;;6.82;4.05;;;;;;;;;;4949810;28;20046;-61
2023/07/02 02:32:57;;;;;;;7.05;4.63;;;;;;;;;;4933082;28;20132;-60
2023/07/02 02:35:24;;;;;;;7.65;4.88;;;;;;;;;;4953298;28;20046;-61
2023/07/02 02:37:51;;;;;;;6.95;5.07;;;;;;;;;;4950494;28;20524;-60
2023/07/02 02:40:17;;;;;;;6.40;4.60;;;;;;;;;;4934911;29;20383;-60
2023/07/02 02:42:43;;;;;;;6.88;4.50;;;;;;;;;;4948694;28;20516;-60
2023/07/02 02:45:09;;;;;;;6.78;4.40;;;;;;;;;;4934781;29;20074;-60
2023/07/02 02:47:35;;;;;;;9.80;4.80;;;;;;;;;;4935187;29;20047;-61
2023/07/02 02:50:03;;;;;;;7.60;4.72;;;;;;;;;;4919312;29;20103;-60
2023/07/02 02:52:31;;;;;;;8.70;5.22;;;;;;;;;;4949707;28;20052;-60
2023/07/02 02:54:57;;;;;;;6.93;4.65;;;;;;;;;;4937996;28;20047;-60
2023/07/02 02:57:23;;;;;;;6.82;4.65;;;;;;;;;;4935271;28;20048;-60
2023/07/02 02:59:49;;;;;;;6.72;4.85;;;;;;;;;;4949558;28;20512;-60
2023/07/02 03:02:15;;;;;;;9.52;4.90;;;;;;;;;;4933264;29;20421;-59
2023/07/02 03:04:44;;;;;;;7.60;4.22;;;;;;;;;;4950886;28;20059;-60
2023/07/02 03:07:10;;;;;;;9.60;4.78;;;;;;;;;;4934527;28;20055;-60
2023/07/02 03:09:36;;;;;;;7.22;4.78;;;;;;;;;;4938722;29;20066;-60
2023/07/02 03:12:02;;;;;;;7.22;4.93;;;;;;;;;;4948832;28;20039;-58
2023/07/02 03:14:29;;;;;;;6.55;4.85;;;;;;;;;;4932242;29;20043;-60
2023/07/02 03:16:55;;;;;;;6.95;4.57;;;;;;;;;;4935987;29;20040;-59
2023/07/02 03:19:21;;;;;;;6.78;5.22;;;;;;;;;;4937318;28;20040;-60
2023/07/02 03:21:47;;;;;;;10.52;4.65;;;;;;;;;;4933603;29;20561;-60
2023/07/02 03:24:13;;;;;;;8.23;4.60;;;;;;;;;;4934276;28;20442;-60
2023/07/02 03:26:40;;;;;;;8.40;4.75;;;;;;;;;;4933978;29;20047;-60
2023/07/02 03:29:06;;;;;;;9.45;5.35;;;;;;;;;;4934221;29;20047;-61
2023/07/02 03:31:33;;;;;;;7.78;5.57;;;;;;;;;;4933651;29;20056;-60
2023/07/02 03:34:03;;;;;;;8.82;5.05;;;;;;;;;;4931848;29;20062;-60
2023/07/02 03:36:29;;;;;;;8.85;5.22;;;;;;;;;;4935923;28;20051;-61
2023/07/02 03:38:55;;;;;;;9.57;5.13;;;;;;;;;;4937439;29;20485;-60
2023/07/02 03:41:21;;;;;;;9.18;5.10;;;;;;;;;;4949617;28;20048;-62
2023/07/02 03:43:47;;;;;;;6.90;4.72;;;;;;;;;;4933086;29;20421;-61
2023/07/02 03:46:14;;;;;;;6.53;4.75;;;;;;;;;;4938869;28;20132;-61
2023/07/02 03:48:40;;;;;;;7.93;4.75;;;;;;;;;;4934367;29;20291;-61
2023/07/02 03:51:06;;;;;;;8.93;4.90;;;;;;;;;;4932935;29;20051;-61
2023/07/02 03:53:33;;;;;;;10.43;5.10;;;;;;;;;;4933501;29;20529;-62
2023/07/02 03:55:59;;;;;;;7.43;4.72;;;;;;;;;;4934552;29;20524;-62
2023/07/02 03:58:25;;;;;;;7.85;4.88;;;;;;;;;;4933393;29;20047;-62
2023/07/02 04:00:51;;;;;;;7.22;5.13;;;;;;;;;;4932603;29;20039;-61
2023/07/02 04:03:18;;;;;;;9.45;4.70;;;;;;;;;;4933840;29;20039;-61
2023/07/02 04:05:44;;;;;;;6.65;4.82;;;;;;;;;;4934957;29;20524;-61
2023/07/02 04:08:10;;;;;;;8.48;5.32;;;;;;;;;;4936985;29;20134;-62
2023/07/02 04:10:36;;;;;;;8.70;5.45;;;;;;;;;;4933530;29;20405;-61
2023/07/02 04:13:02;;;;;;;7.38;5.07;;;;;;;;;;4934021;29;20036;-61
2023/07/02 04:15:28;;;;;;;8.98;5.25;;;;;;;;;;4933938;28;20055;-61
2023/07/02 04:17:54;;;;;;;7.43;5.25;;;;;;;;;;4938044;29;20127;-61
2023/07/02 04:20:21;;;;;;;11.05;5.72;;;;;;;;;;4933011;29;20066;-61
2023/07/02 04:22:47;;;;;;;7.95;4.93;;;;;;;;;;4947128;28;20051;-61
2023/07/02 04:25:15;;;;;;;10.18;5.35;;;;;;;;;;4934144;29;20406;-61
2023/07/02 04:27:42;;;;;;;7.78;5.07;;;;;;;;;;4930355;29;20035;-60
2023/07/02 04:30:10;;;;;;;7.45;5.05;;;;;;;;;;4933948;28;20051;-60
2023/07/02 04:32:39;;;;;;;8.70;5.20;;;;;;;;;;4935314;29;20450;-61
2023/07/02 04:35:08;;;;;;;8.05;4.93;;;;;;;;;;4937641;28;20054;-61
2023/07/02 04:37:35;;;;;;;8.55;5.22;;;;;;;;;;4935519;29;20051;-61
2023/07/02 04:40:03;;;;;;;8.85;5.00;;;;;;;;;;4932666;29;20050;-61
2023/07/02 04:42:31;;;;;;;7.97;5.40;;;;;;;;;;4930362;29;20059;-61
2023/07/02 04:45:02;;;;;;;8.02;4.90;;;;;;;;;;4936168;28;20044;-60
2023/07/02 04:47:32;;;;;;;7.18;4.50;;;;;;;;;;4937194;29;20050;-61
2023/07/02 04:49:58;;;;;;;8.07;5.13;;;;;;;;;;4931894;29;20031;-61
2023/07/02 04:52:24;;;;;;;6.82;4.80;;;;;;;;;;4931333;29;20039;-61
2023/07/02 04:54:51;;;;;;;7.38;4.78;;;;;;;;;;4935463;28;20059;-61
2023/07/02 04:57:17;;;;;;;6.78;4.68;;;;;;;;;;4932790;29;20520;-61
2023/07/02 04:59:43;;;;;;;5.32;4.10;;;;;;;;;;4935449;29;20052;-60
2023/07/02 05:02:10;;;;;;;6.05;3.85;;;;;;;;;;4932930;29;20039;-60
2023/07/02 05:04:39;;;;;;;5.57;3.40;;;;;;;;;;4934421;28;20047;-60
2023/07/02 05:07:05;;;;;;;4.75;3.70;;;;;;;;;;4934468;29;20048;-59
2023/07/02 05:09:31;;;;;;;4.90;3.05;;;;;;;;;;4933030;28;21517;-60
2023/07/02 05:11:58;;;;;;;5.70;3.22;;;;;;;;;;4947033;28;20062;-60
2023/07/02 05:14:24;;;;;;;4.32;3.08;;;;;;;;;;4932816;28;20418;-59
2023/07/02 05:16:50;;;;;;;5.78;3.45;;;;;;;;;;4932560;29;20048;-59
2023/07/02 05:19:16;;;;;;;7.60;4.68;;;;;;;;;;4932503;29;20036;-59
2023/07/02 05:21:42;;;;;;;5.72;3.10;;;;;;;;;;4931736;29;20047;-60
2023/07/02 05:24:09;;;;;;;5.30;3.00;;;;;;;;;;4932017;29;20052;-59
2023/07/02 05:26:35;;;;;;;3.85;3.05;;;;;;;;;;4932211;29;20404;-59
2023/07/02 05:29:02;;;;;;;3.70;2.80;;;;;;;;;;4931845;29;20051;-59
2023/07/02 05:31:28;;;;;;;4.63;2.72;;;;;;;;;;4932262;29;20055;-59
2023/07/02 05:33:54;;;;;;;4.70;3.67;;;;;;;;;;4930937;29;20059;-60
2023/07/02 05:36:21;;;;;;;6.63;3.97;;;;;;;;;;4936927;29;20505;-60
2023/07/02 05:38:47;;;;;;;7.05;3.60;;;;;;;;;;4948568;28;20095;-60
2023/07/02 05:41:22;;;;;;;5.13;3.67;;;;;;;;;;4935411;29;20048;-60
2023/07/02 05:43:48;;;;;;;5.00;3.55;;;;;;;;;;4929116;29;20032;-60
2023/07/02 05:46:15;;;;;;;4.35;3.40;;;;;;;;;;4932160;29;20038;-60
2023/07/02 05:48:41;;;;;;;4.18;3.50;;;;;;;;;;4932796;29;20047;-59
2023/07/02 05:51:08;;;;;;;9.75;5.10;;;;;;;;;;4947742;28;20043;-60
2023/07/02 05:53:35;;;;;;;8.63;4.53;;;;;;;;;;4931652;29;20032;-60
2023/07/02 05:56:01;;;;;;;9.77;4.40;;;;;;;;;;4935341;29;20038;-60
2023/07/02 05:58:27;;;;;;;8.02;4.72;;;;;;;;;;4932312;29;20040;-60
2023/07/02 06:00:53;;;;;;;10.05;4.80;;;;;;;;;;4933231;28;20418;-60
2023/07/02 06:03:20;;;;;;;7.50;3.88;;;;;;;;;;4934132;29;20059;-60
2023/07/02 06:05:48;;;;;;;8.73;4.97;;;;;;;;;;4934941;29;20035;-61
2023/07/02 06:08:18;;;;;;;8.43;4.30;;;;;;;;;;4936149;28;20410;-60
2023/07/02 06:10:46;;;;;;;8.02;4.35;;;;;;;;;;4936153;29;20036;-61
2023/07/02 06:13:13;;;;;;;11.13;4.80;;;;;;;;;;4950823;28;20043;-60
2023/07/02 06:15:39;;;;;;;8.75;4.70;;;;;;;;;;4938131;29;20138;-60
2023/07/02 06:18:06;;;;;;;10.45;5.07;;;;;;;;;;4936983;29;20067;-60
2023/07/02 06:20:32;;;;;;;12.07;5.10;;;;;;;;;;4935153;29;20043;-60
2023/07/02 06:22:58;;;;;;;10.48;4.70;;;;;;;;;;4937228;29;20042;-60
2023/07/02 06:25:24;;;;;;;12.15;4.70;;;;;;;;;;4935722;29;20048;-59
2023/07/02 06:27:52;;;;;;;10.52;4.95;;;;;;;;;;4942615;28;20047;-59
2023/07/02 06:30:18;;;;;;;19.33;10.25;;;;;;;;;;4933420;29;20509;-59
2023/07/02 06:32:44;;;;;;;10.68;5.82;;;;;;;;;;4934675;29;20054;-59
2023/07/02 06:35:10;;;;;;;10.98;5.28;;;;;;;;;;4935228;28;20066;-60
2023/07/02 06:37:36;;;;;;;8.98;4.57;;;;;;;;;;4950541;28;20630;-60
2023/07/02 06:40:03;;;;;;;8.43;4.55;;;;;;;;;;4935088;29;20052;-59
2023/07/02 06:42:29;;;;;;;11.45;4.95;;;;;;;;;;4936484;29;20039;-60
2023/07/02 06:44:55;;;;;;;12.40;5.45;;;;;;;;;;4936082;28;20055;-61
2023/07/02 06:47:21;;;;;;;11.15;5.22;;;;;;;;;;4935840;28;20054;-61
2023/07/02 06:49:48;;;;;;;9.98;5.25;;;;;;;;;;4936574;29;20044;-60
2023/07/02 06:52:14;;;;;;;13.95;5.70;;;;;;;;;;4932811;29;20039;-61
2023/07/02 06:54:40;;;;;;;13.98;5.93;;;;;;;;;;4937091;28;20040;-59
2023/07/02 06:57:06;;;;;;;10.45;5.32;;;;;;;;;;4934824;28;20052;-60
2023/07/02 06:59:32;;;;;;;11.10;4.82;;;;;;;;;;4934580;29;20042;-59
2023/07/02 07:01:58;;;;;;;12.13;5.88;;;;;;;;;;4935501;29;20051;-59
2023/07/02 07:04:24;;;;;;;10.55;4.75;;;;;;;;;;4934085;28;20050;-60
2023/07/02 07:06:50;;;;;;;9.45;4.80;;;;;;;;;;4934603;29;20059;-60
2023/07/02 07:09:17;;;;;;;11.27;5.13;;;;;;;;;;4949260;28;20051;-59
2023/07/02 07:11:43;;;;;;;9.18;5.13;;;;;;;;;;4935832;29;20529;-59
2023/07/02 07:14:10;;;;;;;15.48;4.78;;;;;;;;;;4934212;28;20052;-59
2023/07/02 07:16:36;;;;;;;10.75;5.75;;;;;;;;;;4934068;29;20055;-60
2023/07/02 07:19:02;;;;;;;14.93;5.90;;;;;;;;;;4935286;28;20048;-61
2023/07/02 07:21:28;;;;;;;12.40;5.80;;;;;;;;;;4934299;29;20044;-60
2023/07/02 07:23:54;;;;;;;10.35;5.90;;;;;;;;;;4933923;29;20056;-60
2023/07/02 07:26:20;;;;;;;14.95;7.47;;;;;;;;;;4937120;29;20043;-60
2023/07/02 07:28:46;;;;;;;12.25;5.97;;;;;;;;;;4935797;28;20421;-60
2023/07/02 07:31:13;;;;;;;14.95;6.80;;;;;;;;;;4935311;29;20043;-60
2023/07/02 07:33:39;;;;;;;25.35;7.65;;;;;;;;;;4933575;28;20048;-60
2023/07/02 07:36:05;;;;;;;18.20;7.53;;;;;;;;;;4933893;29;20039;-60
2023/07/02 07:38:31;;;;;;;15.82;7.13;;;;;;;;;;4935763;29;20032;-60
2023/07/02 07:40:57;;;;;;;16.70;7.15;;;;;;;;;;4936137;29;20047;-60
2023/07/02 07:43:23;;;;;;;14.88;7.07;;;;;;;;;;4931927;29;20047;-60
2023/07/02 07:45:49;;;;;;;19.88;7.88;;;;;;;;;;4934990;29;20036;-60
2023/07/02 07:48:16;;;;;;;15.98;7.45;;;;;;;;;;4935966;29;20043;-60
2023/07/02 07:50:42;;;;;;;17.90;8.45;;;;;;;;;;4937062;29;20032;-60
2023/07/02 07:53:08;;;;;;;21.80;8.90;;;;;;;;;;4932701;29;20486;-59
2023/07/02 07:55:34;;;;;;;25.35;9.07;;;;;;;;;;4934449;28;20046;-59
2023/07/02 07:58:00;;;;;;;23.10;9.70;;;;;;;;;;4936645;29;20046;-60
2023/07/02 08:00:26;;;;;;;22.75;9.65;;;;;;;;;;4933356;29;20032;-60
2023/07/02 08:02:55;;;;;;;23.27;9.75;;;;;;;;;;4934312;29;20036;-60
2023/07/02 08:05:22;;;;;;;31.42;11.43;;;;;;;;;;4936745;28;20046;-60
2023/07/02 08:07:49;;;;;;;21.38;9.73;;;;;;;;;;4934224;28;20055;-60
2023/07/02 08:10:15;;;;;;;27.80;11.45;;;;;;;;;;4933666;28;20039;-60
2023/07/02 08:12:41;;;;;;;28.73;10.75;;;;;;;;;;4933570;28;20074;-60
2023/07/02 08:15:08;;;;;;;25.77;11.27;;;;;;;;;;4934151;29;21403;-60
2023/07/02 08:17:34;;;;;;;27.70;13.00;;;;;;;;;;4938749;28;20056;-59
2023/07/02 08:20:00;;;;;;;30.17;12.18;;;;;;;;;;4919834;29;20035;-60
2023/07/02 08:22:27;;;;;;;28.52;11.63;;;;;;;;;;4933670;29;20039;-60
2023/07/02 08:24:54;;;;;;;34.92;11.85;;;;;;;;;;4933276;29;20028;-60
2023/07/02 08:27:20;;;;;;;29.17;11.57;;;;;;;;;;4932757;29;20046;-60
2023/07/02 08:29:47;;;;;;;26.80;11.40;;;;;;;;;;4900093;29;20043;-61
2023/07/02 08:32:14;;;;;;;26.50;11.85;;;;;;;;;;4931606;29;20028;-61
2023/07/02 08:34:40;;;;;;;32.22;12.23;;;;;;;;;;4931775;29;20039;-61
2023/07/02 08:37:06;;;;;;;29.48;11.80;;;;;;;;;;4933380;28;20047;-61
2023/07/02 08:39:32;;;;;;;31.33;12.27;;;;;;;;;;4934367;29;20028;-61
2023/07/02 08:41:58;;;;;;;27.63;11.60;;;;;;;;;;4933293;29;20400;-61
2023/07/02 08:44:26;;;;;;;28.45;12.23;;;;;;;;;;4933376;28;20064;-59
2023/07/02 08:46:55;;;;;;;32.58;13.45;;;;;;;;;;4935246;29;20054;-60
2023/07/02 08:49:21;;;;;;;32.17;13.75;;;;;;;;;;4933091;28;20054;-61
2023/07/02 08:51:47;;;;;;;30.90;13.45;;;;;;;;;;4931991;29;20512;-59
2023/07/02 08:54:14;;;;;;;30.27;12.55;;;;;;;;;;4935219;28;20051;-59
2023/07/02 08:56:40;;;;;;;32.88;12.80;;;;;;;;;;4933889;29;20054;-59
2023/07/02 08:59:07;;;;;;;24.77;12.13;;;;;;;;;;4947190;28;20044;-59
2023/07/02 09:01:48;;;;;;;29.15;12.27;;;;;;;;;;4932727;29;20066;-59
2023/07/02 09:04:22;;;;;;;29.23;12.80;;;;;;;;;;4931829;29;20482;-59
2023/07/02 09:06:49;;;;;;;34.38;13.52;;;;;;;;;;4933018;28;20078;-60
2023/07/02 09:09:16;;;;;;;35.10;13.77;;;;;;;;;;4935803;29;20035;-59
2023/07/02 09:11:49;;;;;;;30.98;13.15;;;;;;;;;;4932436;29;20047;-59
2023/07/02 09:14:29;;;;;;;30.42;13.65;;;;;;;;;;4934711;29;20051;-59
2023/07/02 09:17:03;;;;;;;33.25;13.40;;;;;;;;;;4933232;29;20120;-58
2023/07/02 09:19:29;;;;;;;32.50;13.18;;;;;;;;;;4933766;28;20047;-59
2023/07/02 09:21:59;;;;;;;35.53;13.00;;;;;;;;;;4931513;29;20031;-59
2023/07/02 09:24:29;;;;;;;32.58;13.45;;;;;;;;;;4932439;29;20055;-59
2023/07/02 09:26:57;;;;;;;32.30;13.60;;;;;;;;;;4934729;28;20052;-60
2023/07/02 09:29:29;;;;;;;33.30;12.90;;;;;;;;;;4934514;29;20052;-60
2023/07/02 09:32:00;;;;;;;32.50;13.07;;;;;;;;;;4945844;28;20318;-61
2023/07/02 09:34:34;;;;;;;37.72;14.23;;;;;;;;;;4932761;29;20067;-60
2023/07/02 09:37:03;;;;;;;34.75;14.02;;;;;;;;;;4935701;28;20055;-60
2023/07/02 09:39:31;;;;;;;33.90;13.85;;;;;;;;;;4939521;29;20043;-61
2023/07/02 09:41:59;;;;;;;29.00;13.13;;;;;;;;;;4935720;29;20490;-60
2023/07/02 09:44:33;;;;;;;27.45;12.32;;;;;;;;;;4938497;29;20051;-59
2023/07/02 09:47:07;;;;;;;31.20;14.07;;;;;;;;;;4940417;29;20035;-59
2023/07/02 09:49:38;;;;;;;30.77;13.70;;;;;;;;;;4935883;29;20047;-59
2023/07/02 09:52:09;;;;;;;31.90;13.38;;;;;;;;;;4935928;28;20069;-60
2023/07/02 09:54:36;;;;;;;32.78;14.18;;;;;;;;;;4936472;29;20482;-58
2023/07/02 09:57:03;;;;;;;34.58;13.60;;;;;;;;;;4937478;29;20051;-59
2023/07/02 09:59:30;;;;;;;36.75;13.55;;;;;;;;;;4934370;28;20043;-60
2023/07/02 10:01:57;;;;;;;36.83;14.48;;;;;;;;;;4935703;29;20394;-59
2023/07/02 10:04:24;;;;;;;32.42;14.05;;;;;;;;;;4937184;28;20047;-59
2023/07/02 10:06:54;;;;;;;37.03;13.95;;;;;;;;;;4935163;28;20055;-60
2023/07/02 10:09:34;;;;;;;43.67;15.20;;;;;;;;;;4934167;29;20062;-59
2023/07/02 10:12:00;;;;;;;36.08;14.40;;;;;;;;;;4935305;29;20031;-59
2023/07/02 10:14:26;;;;;;;42.00;15.95;;;;;;;;;;4933971;29;20043;-59
2023/07/02 10:16:54;;;;;;;40.28;15.68;;;;;;;;;;4952430;28;20031;-59
2023/07/02 10:19:21;;;;;;;35.88;15.13;;;;;;;;;;4940570;29;20043;-61
2023/07/02 10:22:03;;;;;;;37.70;16.30;;;;;;;;;;4936054;29;20039;-60
2023/07/02 10:24:30;;;;;;;37.72;17.20;;;;;;;;;;4939607;29;20038;-61
2023/07/02 10:27:03;;;;;;;41.47;17.38;;;;;;;;;;4949840;28;20052;-60
2023/07/02 10:29:29;;;;;;;49.67;18.85;;;;;;;;;;4936674;28;20059;-60
2023/07/02 10:31:56;;;;;;;44.10;18.70;;;;;;;;;;4937029;29;20035;-60
2023/07/02 10:34:29;;;;;;;49.05;19.23;;;;;;;;;;4934501;29;20043;-60
2023/07/02 10:36:55;;;;;;;48.58;20.77;;;;;;;;;;4936453;29;20043;-61
2023/07/02 10:39:22;;;;;;;47.40;19.45;;;;;;;;;;4940188;29;20047;-60
2023/07/02 10:41:49;;;;;;;46.28;17.80;;;;;;;;;;4937814;28;20055;-60
2023/07/02 10:44:15;;;;;;;45.63;18.90;;;;;;;;;;4934362;29;20393;-60
2023/07/02 10:46:48;;;;;;;48.35;16.40;;;;;;;;;;4936569;28;20430;-60
2023/07/02 10:49:17;;;;;;;56.55;19.52;;;;;;;;;;4936242;29;20054;-60
2023/07/02 10:51:44;;;;;;;45.33;18.90;;;;;;;;;;4934530;28;20415;-60
2023/07/02 10:54:10;;;;;;;54.78;20.77;;;;;;;;;;4947993;28;20036;-60
2023/07/02 10:56:36;;;;;;;51.05;20.13;;;;;;;;;;4935656;28;20062;-60
2023/07/02 10:59:03;;;;;;;50.60;20.10;;;;;;;;;;4935425;28;20051;-60
2023/07/02 11:01:31;;;;;;;49.80;20.60;;;;;;;;;;4935685;28;20043;-60
2023/07/02 11:03:59;;;;;;;53.05;20.80;;;;;;;;;;4935485;28;20051;-60
2023/07/02 11:06:26;;;;;;;51.55;20.25;;;;;;;;;;4937633;28;20051;-61
2023/07/02 11:08:54;;;;;;;55.05;20.60;;;;;;;;;;4936526;28;20054;-60
2023/07/02 11:11:22;;;;;;;51.60;21.27;;;;;;;;;;4937144;29;20031;-60
2023/07/02 11:13:49;;;;;;;49.00;20.33;;;;;;;;;;4933581;29;20047;-60
2023/07/02 11:16:22;;;;;;;55.88;22.65;;;;;;;;;;4933024;29;20051;-60
2023/07/02 11:18:48;;;;;;;53.47;21.80;;;;;;;;;;4951293;28;20891;-60
2023/07/02 11:21:14;;;;;;;54.20;22.65;;;;;;;;;;4933440;29;20039;-61
2023/07/02 11:23:41;;;;;;;55.10;22.67;;;;;;;;;;4948052;28;20046;-61
2023/07/02 11:26:07;;;;;;;61.08;22.45;;;;;;;;;;4936094;29;20039;-61
2023/07/02 11:28:36;;;;;;;59.63;23.63;;;;;;;;;;4934281;29;20035;-61
2023/07/02 11:31:03;;;;;;;57.00;23.33;;;;;;;;;;4934271;29;20032;-60
2023/07/02 11:33:40;;;;;;;62.55;24.13;;;;;;;;;;4936976;28;20067;-61
2023/07/02 11:36:07;;;;;;;57.47;24.33;;;;;;;;;;4932895;29;20429;-61
2023/07/02 11:38:35;;;;;;;56.38;24.02;;;;;;;;;;4934590;28;20051;-61
2023/07/02 11:41:05;;;;;;;63.70;25.17;;;;;;;;;;4948637;28;20441;-60
2023/07/02 11:43:31;;;;;;;65.65;25.85;;;;;;;;;;4937103;29;20040;-60
2023/07/02 11:45:59;;;;;;;71.32;25.70;;;;;;;;;;4939364;29;20043;-62
2023/07/02 11:48:25;;;;;;;59.17;24.20;;;;;;;;;;4934372;28;20410;-60
2023/07/02 11:50:51;;;;;;;59.88;25.48;;;;;;;;;;4933885;29;20062;-61
2023/07/02 11:53:17;;;;;;;67.00;26.52;;;;;;;;;;4932557;29;20054;-61
2023/07/02 11:55:43;;;;;;;68.13;26.23;;;;;;;;;;4933901;29;20062;-59
2023/07/02 11:58:09;;;;;;;64.78;26.45;;;;;;;;;;4933929;28;20054;-60
2023/07/02 12:00:35;;;;;;;63.67;27.13;;;;;;;;;;4935661;28;20051;-59
2023/07/02 12:03:01;;;;;;;57.75;24.83;;;;;;;;;;4933086;29;20051;-59
2023/07/02 12:05:27;;;;;;;70.22;27.77;;;;;;;;;;4933591;28;20047;-59
2023/07/02 12:07:54;;;;;;;61.92;26.20;;;;;;;;;;4932990;29;20055;-59
2023/07/02 12:10:20;;;;;;;64.90;25.55;;;;;;;;;;4935271;29;20526;-59
2023/07/02 12:12:46;;;;;;;59.85;26.73;;;;;;;;;;4933061;28;20058;-60
2023/07/02 12:15:12;;;;;;;62.28;25.55;;;;;;;;;;4948166;28;20043;-59
2023/07/02 12:17:38;;;;;;;65.82;27.20;;;;;;;;;;4937422;29;20035;-59
2023/07/02 12:20:05;;;;;;;63.33;25.33;;;;;;;;;;4931351;29;20054;-59
2023/07/02 12:22:31;;;;;;;64.90;25.08;;;;;;;;;;4933212;28;20058;-59
2023/07/02 12:24:57;;;;;;;57.17;25.08;;;;;;;;;;4934081;29;20035;-59
2023/07/02 12:27:25;;;;;;;51.88;21.88;;;;;;;;;;4939222;29;20035;-59
2023/07/02 12:29:51;;;;;;;52.88;22.67;;;;;;;;;;4950419;28;20067;-59
2023/07/02 12:32:17;;;;;;;54.20;22.48;;;;;;;;;;4932218;29;20035;-59
2023/07/02 12:34:43;;;;;;;53.10;22.27;;;;;;;;;;4933339;29;20047;-59
2023/07/02 12:37:09;;;;;;;53.55;22.73;;;;;;;;;;4931794;29;20043;-60
2023/07/02 12:39:35;;;;;;;47.08;21.60;;;;;;;;;;4926373;29;20047;-60
2023/07/02 12:42:02;;;;;;;56.28;22.90;;;;;;;;;;4932831;29;20059;-60
2023/07/02 12:44:28;;;;;;;49.05;21.17;;;;;;;;;;4937597;28;20043;-59
2023/07/02 12:46:54;;;;;;;48.97;21.85;;;;;;;;;;4933344;29;20071;-60
2023/07/02 12:49:20;;;;;;;48.35;21.67;;;;;;;;;;4933803;28;20429;-60
2023/07/02 12:51:46;;;;;;;49.60;21.20;;;;;;;;;;4933454;29;20055;-61
2023/07/02 12:54:13;;;;;;;49.03;20.25;;;;;;;;;;4931956;29;20043;-60
2023/07/02 12:56:39;;;;;;;46.70;20.17;;;;;;;;;;4932568;29;20036;-60
2023/07/02 12:59:05;;;;;;;45.10;20.92;;;;;;;;;;4937839;29;20055;-60
2023/07/02 13:01:31;;;;;;;42.63;19.90;;;;;;;;;;4932087;29;20375;-61
2023/07/02 13:03:58;;;;;;;45.90;19.50;;;;;;;;;;4930186;29;20516;-60
2023/07/02 13:06:24;;;;;;;46.35;20.85;;;;;;;;;;4930465;29;20047;-61
2023/07/02 13:08:50;;;;;;;49.95;20.95;;;;;;;;;;4935302;29;20042;-60
2023/07/02 13:11:16;;;;;;;46.22;20.98;;;;;;;;;;4932158;29;20509;-61
2023/07/02 13:13:42;;;;;;;45.33;21.58;;;;;;;;;;4934214;29;20043;-61
2023/07/02 13:16:08;;;;;;;48.28;21.23;;;;;;;;;;4937325;28;20425;-60
2023/07/02 13:18:34;;;;;;;48.28;21.42;;;;;;;;;;4936207;29;20043;-60
2023/07/02 13:21:01;;;;;;;50.00;21.83;;;;;;;;;;4938401;28;20502;-60
2023/07/02 13:23:27;;;;;;;42.70;20.92;;;;;;;;;;4938582;29;20044;-60
2023/07/02 13:25:53;;;;;;;44.83;19.52;;;;;;;;;;4936629;28;20063;-59
2023/07/02 13:28:21;;;;;;;42.63;19.63;;;;;;;;;;4937219;29;20038;-59
2023/07/02 13:30:47;;;;;;;48.43;19.67;;;;;;;;;;4935970;29;20048;-60
2023/07/02 13:33:13;;;;;;;44.72;20.67;;;;;;;;;;4934843;29;20512;-60
2023/07/02 13:35:39;;;;;;;46.17;20.27;;;;;;;;;;4939221;29;20106;-59
2023/07/02 13:38:05;;;;;;;44.08;20.02;;;;;;;;;;4938320;29;20046;-60
2023/07/02 13:40:31;;;;;;;40.53;20.05;;;;;;;;;;4936787;28;20051;-58
2023/07/02 13:42:57;;;;;;;42.53;19.77;;;;;;;;;;4934846;29;20048;-61
2023/07/02 13:45:24;;;;;;;43.47;21.42;;;;;;;;;;4941053;29;20052;-60
2023/07/02 13:47:50;;;;;;;45.58;21.45;;;;;;;;;;4943127;28;20062;-61
2023/07/02 13:50:16;;;;;;;43.22;20.75;;;;;;;;;;4939123;29;20486;-60
2023/07/02 13:52:42;;;;;;;44.17;19.85;;;;;;;;;;4937000;28;20059;-59
2023/07/02 13:55:08;;;;;;;41.85;20.40;;;;;;;;;;4936145;29;20043;-60
2023/07/02 13:57:34;;;;;;;45.60;21.40;;;;;;;;;;4940016;29;20043;-60
2023/07/02 14:00:01;;;;;;;46.22;21.92;;;;;;;;;;4936319;29;20387;-59
2023/07/02 14:02:27;;;;;;;50.13;22.30;;;;;;;;;;4934430;29;20036;-60
2023/07/02 14:04:53;;;;;;;51.47;22.60;;;;;;;;;;4935489;29;20048;-60
2023/07/02 14:07:19;;;;;;;53.22;22.48;;;;;;;;;;4935211;29;20044;-59
2023/07/02 14:09:45;;;;;;;49.60;22.10;;;;;;;;;;4937231;29;20039;-59
2023/07/02 14:12:12;;;;;;;47.05;22.23;;;;;;;;;;4935129;29;20397;-59
2023/07/02 14:14:38;;;;;;;47.85;22.05;;;;;;;;;;4936946;29;20051;-62
2023/07/02 14:17:05;;;;;;;43.25;20.83;;;;;;;;;;4934893;28;20052;-63
2023/07/02 14:19:31;;;;;;;47.17;20.92;;;;;;;;;;4935675;29;20042;-64
2023/07/02 14:21:57;;;;;;;45.22;21.58;;;;;;;;;;4934882;29;20048;-62
2023/07/02 14:24:23;;;;;;;45.80;21.70;;;;;;;;;;4934394;29;20051;-61
2023/07/02 14:26:49;;;;;;;43.97;21.40;;;;;;;;;;4936446;29;20386;-62
2023/07/02 14:29:15;;;;;;;44.67;21.33;;;;;;;;;;4936318;29;20027;-61